Time;durP1;ratioP1;P1;durP2;ratioP2;P2;SDS_P1;SDS_P2;PMS_P1;PMS_P2;Temp;Humidity;BMP_temperature;BMP_pressure;BME280_temperature;BME280_humidity;BME280_pressure;Samples;Min_cycle;Max_cycle;Signal;HPM_P1;HPM_P2
2021/01/07 00:00:07;;;;;;;171.83;115.63;;;;;;;1.56;88.48;98259.77;119137;1151;65118;-84
2021/01/07 00:02:54;;;;;;;175.63;119.17;;;;;;;1.56;88.48;98254.52;119147;1151;65041;-84
2021/01/07 00:05:20;;;;;;;173.27;117.17;;;;;;;1.56;88.99;98254.52;119159;1151;65557;-85
2021/01/07 00:07:47;;;;;;;184.27;122.40;;;;;;;1.58;88.95;98250.03;119155;1151;65207;-84
2021/01/07 00:10:13;;;;;;;181.27;117.43;;;;;;;1.60;88.73;98246.42;119137;1151;65153;-85
2021/01/07 00:12:40;;;;;;;177.20;117.20;;;;;;;1.63;89.19;98245.44;119214;1151;65178;-86
2021/01/07 00:15:08;;;;;;;152.47;106.67;;;;;;;1.62;88.65;98247.22;119111;1151;65262;-87
2021/01/07 00:17:35;;;;;;;151.13;101.07;;;;;;;1.60;88.30;98242.95;119054;1151;65573;-87
2021/01/07 00:20:01;;;;;;;155.60;101.40;;;;;;;1.57;88.31;98248.34;119195;1151;65101;-84
2021/01/07 00:22:27;;;;;;;164.23;108.00;;;;;;;1.56;88.68;98249.27;119004;1151;65104;-86
2021/01/07 00:24:54;;;;;;;160.43;109.90;;;;;;;1.60;88.99;98254.30;119033;1151;65181;-84
2021/01/07 00:27:20;;;;;;;162.80;112.33;;;;;;;1.59;88.34;98252.61;118636;1151;65101;-84
2021/01/07 00:29:47;;;;;;;161.23;107.57;;;;;;;1.57;88.63;98251.81;119188;1151;65146;-84
2021/01/07 00:32:13;;;;;;;170.70;112.43;;;;;;;1.59;88.64;98255.23;119152;1151;65108;-84
2021/01/07 00:34:39;;;;;;;167.97;110.10;;;;;;;1.57;88.85;98254.44;119093;1151;65146;-80
2021/01/07 00:37:06;;;;;;;151.93;104.03;;;;;;;1.58;89.07;98250.91;119333;1150;65101;-80
2021/01/07 00:39:32;;;;;;;149.70;103.60;;;;;;;1.58;88.48;98257.91;119291;1151;65136;-80
2021/01/07 00:42:00;;;;;;;152.50;103.45;;;;;;;1.56;88.86;98260.63;119091;1151;65186;-80
2021/01/07 00:44:27;;;;;;;155.20;105.90;;;;;;;1.61;89.09;98263.06;119323;1150;65140;-80
2021/01/07 00:46:54;;;;;;;159.53;110.87;;;;;;;1.61;89.05;98261.28;118712;1151;65137;-79
2021/01/07 00:49:21;;;;;;;171.00;116.45;;;;;;;1.61;88.80;98261.28;118946;1150;65178;-81
2021/01/07 00:51:48;;;;;;;178.55;121.60;;;;;;;1.61;88.58;98269.16;119335;1150;65127;-79
2021/01/07 00:54:15;;;;;;;193.90;126.73;;;;;;;1.63;88.99;98263.83;119025;1151;65102;-79
2021/01/07 00:56:42;;;;;;;201.27;125.37;;;;;;;1.65;89.07;98270.72;119229;1151;65197;-80
2021/01/07 00:59:08;;;;;;;179.23;120.37;;;;;;;1.63;88.79;98267.30;119187;1151;65124;-80
2021/01/07 01:01:48;;;;;;;159.20;110.35;;;;;;;1.65;88.70;98264.63;119051;1151;65235;-80
2021/01/07 01:04:16;;;;;;;160.20;109.00;;;;;;;1.63;88.49;98266.45;119231;1150;65481;-80
2021/01/07 01:06:43;;;;;;;164.57;109.43;;;;;;;1.62;88.91;98265.60;119278;1150;65098;-79
2021/01/07 01:09:12;;;;;;;176.80;114.70;;;;;;;1.71;88.81;98274.86;119269;1150;65132;-82
2021/01/07 01:11:43;;;;;;;175.33;117.60;;;;;;;1.75;88.95;98266.78;119323;1150;65129;-81
2021/01/07 01:14:15;;;;;;;184.10;121.70;;;;;;;1.75;89.24;98266.78;119283;1150;65181;-80
2021/01/07 01:16:41;;;;;;;180.80;121.90;;;;;;;1.75;89.05;98273.81;119330;1150;65154;-79
2021/01/07 01:19:08;;;;;;;182.10;123.20;;;;;;;1.75;88.78;98268.56;119220;1150;65057;-79
2021/01/07 01:21:34;;;;;;;161.93;110.43;;;;;;;1.75;88.44;98276.45;119234;1149;65069;-80
2021/01/07 01:24:01;;;;;;;155.30;109.50;;;;;;;1.74;88.94;98270.34;119240;1150;65098;-79
2021/01/07 01:26:27;;;;;;;155.05;104.32;;;;;;;1.74;88.45;98269.50;119246;1150;65114;-80
2021/01/07 01:28:53;;;;;;;165.53;111.63;;;;;;;1.73;88.74;98278.28;119248;1150;65142;-81
2021/01/07 01:31:20;;;;;;;171.70;115.15;;;;;;;1.75;88.68;98268.56;119113;1150;65118;-81
2021/01/07 01:33:46;;;;;;;178.17;117.77;;;;;;;1.74;88.73;98278.22;118990;1150;65203;-79
2021/01/07 01:36:13;;;;;;;181.07;119.83;;;;;;;1.73;88.42;98268.62;119228;1150;65124;-79
2021/01/07 01:38:39;;;;;;;193.93;121.83;;;;;;;1.72;88.51;98268.70;119207;1150;65232;-79
2021/01/07 01:41:07;;;;;;;171.23;114.83;;;;;;;1.68;88.44;98274.99;119049;1150;65129;-80
2021/01/07 01:43:34;;;;;;;160.67;109.57;;;;;;;1.66;88.35;98274.19;119225;1151;65279;-80
2021/01/07 01:46:01;;;;;;;161.93;106.63;;;;;;;1.71;88.92;98274.86;119221;1150;65458;-81
2021/01/07 01:48:29;;;;;;;150.30;101.97;;;;;;;1.67;88.77;98273.30;119281;1150;65031;-80
2021/01/07 01:50:55;;;;;;;151.43;103.37;;;;;;;1.65;89.15;98269.88;119226;1150;65124;-79
2021/01/07 01:53:22;;;;;;;159.93;106.70;;;;;;;1.67;88.88;98268.89;119240;1150;65121;-80
2021/01/07 01:55:50;;;;;;;164.60;110.87;;;;;;;1.67;88.83;98258.38;119178;1150;65127;-81
2021/01/07 01:58:16;;;;;;;179.93;116.60;;;;;;;1.66;88.65;98256.69;118972;1151;65221;-79
2021/01/07 02:00:43;;;;;;;182.95;119.70;;;;;;;1.63;88.57;98262.05;118616;1151;65242;-79
2021/01/07 02:03:10;;;;;;;190.63;119.60;;;;;;;1.61;89.03;98263.91;118892;1151;65744;-79
2021/01/07 02:05:38;;;;;;;168.80;112.50;;;;;;;1.56;88.71;98250.12;119275;1150;65050;-80
2021/01/07 02:08:08;;;;;;;170.70;110.13;;;;;;;1.55;88.92;98256.27;119272;1150;65195;-79
2021/01/07 02:10:35;;;;;;;161.75;103.17;;;;;;;1.58;88.75;98256.16;119272;1150;65095;-80
2021/01/07 02:13:03;;;;;;;160.77;106.07;;;;;;;1.57;89.14;98253.59;119034;1151;65150;-82
2021/01/07 02:15:31;;;;;;;170.30;109.43;;;;;;;1.58;88.66;98247.41;119352;1150;65041;-80
2021/01/07 02:17:57;;;;;;;177.93;113.57;;;;;;;1.61;89.11;98242.05;119380;1151;65146;-81
2021/01/07 02:20:26;;;;;;;189.93;121.17;;;;;;;1.61;89.05;98240.27;119096;1149;65166;-81
2021/01/07 02:22:56;;;;;;;183.20;118.37;;;;;;;1.58;88.86;98248.28;119234;1150;65098;-81
2021/01/07 02:25:23;;;;;;;187.23;122.53;;;;;;;1.55;88.73;98248.39;119341;1149;65101;-81
2021/01/07 02:27:50;;;;;;;187.87;122.83;;;;;;;1.53;89.04;98255.50;119036;1151;65094;-79
2021/01/07 02:30:18;;;;;;;171.57;112.37;;;;;;;1.54;88.77;98257.20;119057;1150;65152;-80
2021/01/07 02:32:45;;;;;;;165.73;107.53;;;;;;;1.51;88.62;98257.33;118653;1151;65098;-80
2021/01/07 02:35:13;;;;;;;170.65;108.20;;;;;;;1.47;88.46;98246.09;118452;1151;65213;-80
2021/01/07 02:37:42;;;;;;;175.73;112.87;;;;;;;1.46;88.69;98256.67;118525;1150;65111;-80
2021/01/07 02:40:09;;;;;;;;;;;;;;;1.50;89.07;98255.61;118924;1151;65130;-80
2021/01/07 02:42:36;;;;;;;213.33;129.37;;;;;;;1.47;88.86;98259.22;119329;1151;65099;-79
2021/01/07 02:45:05;;;;;;;203.07;129.50;;;;;;;1.42;89.02;98266.46;119262;1150;65098;-79
2021/01/07 02:47:31;;;;;;;217.75;133.45;;;;;;;1.39;89.16;98261.31;119279;1150;65037;-80
2021/01/07 02:49:57;;;;;;;206.57;129.93;;;;;;;1.37;89.21;98265.80;119217;1151;65153;-80
2021/01/07 02:52:24;;;;;;;200.13;129.30;;;;;;;1.38;89.27;98270.12;119221;1150;65278;-79
2021/01/07 02:54:50;;;;;;;203.50;128.35;;;;;;;1.42;88.94;98263.84;119218;1151;65551;-79
2021/01/07 02:57:17;;;;;;;210.03;129.80;;;;;;;1.47;89.15;98264.47;119182;1150;65041;-79
2021/01/07 02:59:43;;;;;;;199.10;130.10;;;;;;;1.52;89.18;98265.13;119219;1151;65098;-79
2021/01/07 03:02:09;;;;;;;226.40;137.63;;;;;;;1.56;89.05;98262.40;119227;1150;65560;-79
2021/01/07 03:04:36;;;;;;;224.67;137.67;;;;;;;1.55;88.99;98261.52;119182;1151;65260;-79
2021/01/07 03:07:02;;;;;;;235.70;143.80;;;;;;;1.56;88.68;98262.40;119164;1150;65146;-78
2021/01/07 03:09:29;;;;;;;239.67;146.63;;;;;;;1.56;88.73;98257.15;119196;1151;65120;-79
2021/01/07 03:11:55;;;;;;;227.40;142.57;;;;;;;1.58;89.02;98261.42;119189;1149;65130;-81
2021/01/07 03:14:22;;;;;;;225.70;136.80;;;;;;;1.58;89.05;98257.91;118766;1151;65038;-80
2021/01/07 03:16:48;;;;;;;203.33;128.20;;;;;;;1.55;88.82;98261.52;118797;1150;65220;-80
2021/01/07 03:19:15;;;;;;;191.73;121.70;;;;;;;1.51;88.78;98254.70;118797;1151;65127;-80
2021/01/07 03:21:44;;;;;;;216.85;132.00;;;;;;;1.54;89.02;98252.80;118705;1151;65121;-80
2021/01/07 03:24:10;;;;;;;219.87;132.73;;;;;;;1.56;89.26;98257.15;118853;1151;65129;-80
2021/01/07 03:26:36;;;;;;;245.13;148.97;;;;;;;1.57;89.18;98259.69;118716;1150;65123;-80
2021/01/07 03:29:03;;;;;;;250.67;150.30;;;;;;;1.58;89.14;98255.28;118764;1151;65148;-80
2021/01/07 03:31:31;;;;;;;245.90;145.73;;;;;;;1.56;88.69;98260.63;119309;1150;65152;-79
2021/01/07 03:33:57;;;;;;;258.57;150.43;;;;;;;1.56;89.19;98262.40;119277;1150;65207;-79
2021/01/07 03:36:24;;;;;;;216.70;135.73;;;;;;;1.54;89.04;98260.67;119017;1150;65035;-79
2021/01/07 03:38:50;;;;;;;210.03;126.67;;;;;;;1.53;89.11;98253.73;119237;1151;65108;-79
2021/01/07 03:41:17;;;;;;;194.05;117.85;;;;;;;1.53;88.78;98264.23;119213;1150;65114;-79
2021/01/07 03:43:43;;;;;;;183.55;114.55;;;;;;;1.56;88.75;98255.37;119204;1150;65140;-79
2021/01/07 03:46:10;;;;;;;188.57;118.00;;;;;;;1.56;89.18;98263.25;118715;1151;65127;-79
2021/01/07 03:48:36;;;;;;;200.60;119.67;;;;;;;1.54;88.97;98259.83;119234;1150;65098;-79
2021/01/07 03:51:03;;;;;;;198.10;119.10;;;;;;;1.50;88.87;98261.73;119211;1150;65102;-79
2021/01/07 03:53:29;;;;;;;203.30;126.57;;;;;;;1.52;88.61;98259.03;119314;1150;65281;-79
2021/01/07 03:55:55;;;;;;;207.03;127.77;;;;;;;1.53;88.92;98256.35;119074;1151;65119;-79
2021/01/07 03:58:22;;;;;;;197.37;118.13;;;;;;;1.56;89.45;98251.90;119226;1151;65133;-79
2021/01/07 04:00:49;;;;;;;186.50;115.40;;;;;;;1.60;89.08;98243.80;119241;1150;65095;-81
2021/01/07 04:03:15;;;;;;;177.77;109.30;;;;;;;1.64;89.04;98249.80;119053;1150;65098;-80
2021/01/07 04:05:41;;;;;;;172.27;104.67;;;;;;;1.65;88.96;98249.70;119232;1150;65103;-80
2021/01/07 04:08:08;;;;;;;165.80;101.47;;;;;;;1.66;88.99;98250.55;119246;1150;65127;-80
2021/01/07 04:10:34;;;;;;;168.03;106.17;;;;;;;1.64;89.07;98250.64;119240;1149;65626;-80
2021/01/07 04:13:01;;;;;;;172.97;107.13;;;;;;;1.64;89.23;98249.80;119226;1151;65091;-80
2021/01/07 04:15:27;;;;;;;184.33;106.43;;;;;;;1.65;89.10;98254.11;119218;1150;65159;-80
2021/01/07 04:17:53;;;;;;;170.33;102.37;;;;;;;1.66;89.10;98254.06;119212;1150;65227;-80
2021/01/07 04:20:20;;;;;;;148.75;91.25;;;;;;;1.67;88.78;98254.91;119257;1151;65120;-80
2021/01/07 04:22:46;;;;;;;125.50;76.37;;;;;;;1.64;88.78;98255.05;118792;1150;65117;-80
2021/01/07 04:25:13;;;;;;;114.77;67.70;;;;;;;1.64;88.92;98252.42;118559;1150;65194;-80
2021/01/07 04:27:40;;;;;;;88.77;56.63;;;;;;;1.61;88.55;98258.66;119206;1150;65140;-80
2021/01/07 04:30:07;;;;;;;83.45;52.50;;;;;;;1.63;88.85;98251.54;119001;1151;65226;-80
2021/01/07 04:32:34;;;;;;;75.05;50.65;;;;;;;1.63;88.78;98251.54;119242;1151;65121;-80
2021/01/07 04:35:00;;;;;;;69.03;45.17;;;;;;;1.62;89.01;98247.22;119143;1150;65442;-80
2021/01/07 04:37:26;;;;;;;64.43;41.40;;;;;;;1.58;88.82;98256.16;118909;1150;65127;-81
2021/01/07 04:39:53;;;;;;;64.63;40.93;;;;;;;1.52;88.75;98262.50;118465;1150;65134;-81
2021/01/07 04:42:20;;;;;;;58.57;38.13;;;;;;;1.50;88.75;98256.48;118844;1150;65227;-81
2021/01/07 04:44:47;;;;;;;53.27;35.67;;;;;;;1.51;88.94;98258.19;119309;1151;65220;-81
2021/01/07 04:47:14;;;;;;;61.43;38.50;;;;;;;1.53;88.91;98260.75;119319;1150;65122;-81
2021/01/07 04:49:41;;;;;;;54.53;38.63;;;;;;;1.52;88.84;98266.91;119296;1150;65225;-81
2021/01/07 04:52:07;;;;;;;64.03;40.70;;;;;;;1.54;88.79;98259.83;119334;1151;65095;-80
2021/01/07 04:54:34;;;;;;;66.83;41.97;;;;;;;1.55;88.77;98264.14;119279;1151;65254;-80
2021/01/07 04:57:01;;;;;;;67.90;42.20;;;;;;;1.52;88.53;98259.88;119298;1150;65124;-81
2021/01/07 04:59:27;;;;;;;67.83;42.90;;;;;;;1.52;88.78;98261.66;119305;1151;65121;-81
2021/01/07 05:01:56;;;;;;;55.88;39.48;;;;;;;1.49;88.22;98265.27;119097;1151;65124;-79
2021/01/07 05:04:22;;;;;;;53.77;36.70;;;;;;;1.51;88.71;98265.21;119338;1150;65118;-80
2021/01/07 05:06:49;;;;;;;48.37;34.23;;;;;;;1.49;88.81;98267.04;119306;1150;65133;-79
2021/01/07 05:09:15;;;;;;;48.45;32.45;;;;;;;1.47;88.35;98267.09;119261;1150;65586;-79
2021/01/07 05:11:42;;;;;;;46.17;32.93;;;;;;;1.50;88.96;98266.98;119214;1151;65233;-79
2021/01/07 05:14:10;;;;;;;47.10;32.05;;;;;;;1.50;88.48;98264.36;119260;1151;65172;-79
2021/01/07 05:16:37;;;;;;;47.17;33.00;;;;;;;1.47;88.66;98266.24;119045;1151;65484;-79
2021/01/07 05:19:06;;;;;;;43.63;31.00;;;;;;;1.44;88.56;98264.59;119202;1150;65619;-80
2021/01/07 05:21:34;;;;;;;44.30;31.57;;;;;;;1.42;88.48;98266.46;119285;1150;65169;-80
2021/01/07 05:24:02;;;;;;;42.87;30.20;;;;;;;1.39;88.45;98268.34;119267;1150;65129;-80
2021/01/07 05:26:29;;;;;;;40.30;29.27;;;;;;;1.37;88.71;98271.05;119241;1150;65146;-79
2021/01/07 05:28:58;;;;;;;40.05;28.80;;;;;;;1.35;88.48;98270.25;119238;1151;65177;-82
2021/01/07 05:31:27;;;;;;;43.05;31.00;;;;;;;1.34;88.29;98268.52;119320;1150;65203;-80
2021/01/07 05:33:55;;;;;;;43.75;31.15;;;;;;;1.37;89.11;98275.41;119316;1150;65139;-80
2021/01/07 05:36:30;;;;;;;49.13;31.50;;;;;;;1.40;88.82;98280.56;119278;1151;65110;-80
2021/01/07 05:39:05;;;;;;;39.87;28.13;;;;;;;1.38;88.38;98277.98;119250;1150;65136;-80
2021/01/07 05:41:33;;;;;;;37.90;27.50;;;;;;;1.34;88.74;98273.77;119304;1151;65194;-81
2021/01/07 05:44:05;;;;;;;32.67;24.73;;;;;;;1.31;88.42;98281.78;119289;1150;65481;-81
2021/01/07 05:46:33;;;;;;;34.83;22.83;;;;;;;1.30;88.45;98285.33;119309;1150;65220;-79
2021/01/07 05:49:00;;;;;;;31.20;21.10;;;;;;;1.27;88.12;98285.46;119238;1150;65127;-79
2021/01/07 05:51:31;;;;;;;28.83;19.57;;;;;;;1.22;88.25;98280.39;119059;1151;65722;-80
2021/01/07 05:53:59;;;;;;;26.35;18.40;;;;;;;1.17;88.44;98277.09;119288;1150;65114;-81
2021/01/07 05:56:27;;;;;;;32.83;21.03;;;;;;;1.16;88.86;98285.02;119340;1149;65172;-81
2021/01/07 05:58:55;;;;;;;28.87;18.87;;;;;;;1.15;88.48;98278.08;119345;1150;65204;-81
2021/01/07 06:01:23;;;;;;;29.50;20.23;;;;;;;1.12;88.47;98286.08;119278;1151;65126;-81
2021/01/07 06:03:54;;;;;;;29.60;20.45;;;;;;;1.08;88.24;98290.61;119301;1151;65120;-81
2021/01/07 06:06:23;;;;;;;25.40;18.40;;;;;;;1.05;88.16;98286.33;119293;1150;65098;-81
2021/01/07 06:08:51;;;;;;;26.23;17.53;;;;;;;1.02;88.32;98298.70;119285;1151;65100;-81
2021/01/07 06:11:19;;;;;;;27.57;19.30;;;;;;;1.01;88.34;98304.88;119192;1150;65142;-79
2021/01/07 06:13:48;;;;;;;26.90;17.93;;;;;;;0.99;88.05;98302.30;119077;1151;65159;-79
2021/01/07 06:16:17;;;;;;;27.20;18.83;;;;;;;0.95;88.43;98307.72;119293;1151;65098;-79
2021/01/07 06:18:43;;;;;;;34.30;21.50;;;;;;;0.91;88.26;98303.52;118812;1150;65167;-79
2021/01/07 06:21:11;;;;;;;33.40;20.97;;;;;;;0.88;87.93;98315.83;118635;1150;65120;-79
2021/01/07 06:23:45;;;;;;;33.30;21.07;;;;;;;0.87;88.17;98310.67;119077;1149;65102;-80
2021/01/07 06:26:18;;;;;;;31.05;19.75;;;;;;;0.85;88.42;98317.73;118989;1151;65072;-80
2021/01/07 06:28:49;;;;;;;35.03;23.00;;;;;;;0.80;88.41;98324.92;119255;1151;65047;-81
2021/01/07 06:31:17;;;;;;;31.43;19.50;;;;;;;0.80;88.24;98319.67;119235;1151;65103;-79
2021/01/07 06:33:44;;;;;;;36.50;22.40;;;;;;;0.77;87.85;98325.05;119057;1151;65232;-79
2021/01/07 06:36:12;;;;;;;36.03;22.73;;;;;;;0.77;87.95;98327.66;119049;1151;65264;-79
2021/01/07 06:38:50;;;;;;;33.47;21.90;;;;;;;0.76;88.09;98333.80;118916;1149;65079;-79
2021/01/07 06:41:18;;;;;;;33.70;21.40;;;;;;;0.73;87.87;98340.02;118807;1151;65565;-83
2021/01/07 06:43:48;;;;;;;33.70;21.65;;;;;;;0.71;88.33;98339.25;118979;1151;65124;-80
2021/01/07 06:46:37;;;;;;;33.50;21.80;;;;;;;0.71;88.09;98346.23;119200;1150;65166;-80
2021/01/07 06:49:30;;;;;;;30.40;19.67;;;;;;;0.72;88.21;98347.96;118773;1150;65148;-80
2021/01/07 06:52:00;;;;;;;31.47;20.13;;;;;;;0.70;88.41;98350.62;118724;1150;65124;-79
2021/01/07 06:54:32;;;;;;;31.63;19.83;;;;;;;0.69;88.03;98350.70;118767;1150;65118;-80
2021/01/07 06:57:03;;;;;;;32.95;19.65;;;;;;;0.67;88.18;98350.75;118704;1150;65196;-80
2021/01/07 06:59:29;;;;;;;31.83;19.37;;;;;;;0.67;88.28;98357.77;118852;1150;65239;-81
2021/01/07 07:01:58;;;;;;;28.60;19.57;;;;;;;0.67;88.17;98358.61;119136;1150;65146;-79
2021/01/07 07:04:28;;;;;;;30.73;20.43;;;;;;;0.68;88.41;98359.47;119002;1151;65167;-79
2021/01/07 07:07:03;;;;;;;32.90;21.10;;;;;;;0.73;88.63;98368.02;119242;1150;65488;-79
2021/01/07 07:09:39;;;;;;;31.20;20.67;;;;;;;0.74;88.71;98373.22;119229;1151;65095;-79
2021/01/07 07:12:06;;;;;;;34.43;20.20;;;;;;;0.76;88.33;98376.62;119106;1151;65174;-80
2021/01/07 07:14:33;;;;;;;35.13;20.50;;;;;;;0.77;88.59;98383.59;119300;1150;65194;-80
2021/01/07 07:17:06;;;;;;;36.63;21.17;;;;;;;0.77;88.56;98386.22;119293;1151;65103;-81
2021/01/07 07:19:37;;;;;;;34.37;21.13;;;;;;;0.78;88.31;98384.44;119146;1150;65114;-80
2021/01/07 07:22:04;;;;;;;38.93;23.97;;;;;;;0.79;88.46;98397.52;119250;1151;65551;-79
2021/01/07 07:24:39;;;;;;;30.00;19.30;;;;;;;0.84;88.75;98397.31;119066;1151;65292;-79
2021/01/07 07:27:10;;;;;;;28.00;20.13;;;;;;;0.87;88.36;98400.70;119311;1151;65139;-79
2021/01/07 07:29:41;;;;;;;28.83;20.90;;;;;;;0.88;87.95;98402.40;119301;1151;65197;-80
2021/01/07 07:32:27;;;;;;;29.57;19.20;;;;;;;0.90;88.49;98409.38;119105;1150;65031;-80
2021/01/07 07:34:55;;;;;;;28.70;19.43;;;;;;;0.90;88.28;98417.25;119210;1150;65098;-80
2021/01/07 07:37:26;;;;;;;33.40;23.30;;;;;;;0.90;88.41;98412.00;119253;1150;65278;-79
2021/01/07 07:40:01;;;;;;;34.30;22.60;;;;;;;0.92;87.79;98420.64;119231;1150;65146;-80
2021/01/07 07:42:29;;;;;;;35.43;24.47;;;;;;;0.95;87.79;98426.66;119243;1150;65098;-80
2021/01/07 07:44:58;;;;;;;34.95;23.70;;;;;;;0.96;88.05;98430.13;119253;1150;65105;-80
2021/01/07 07:47:25;;;;;;;34.20;23.90;;;;;;;0.99;87.84;98428.23;119131;1151;65047;-80
2021/01/07 07:49:58;;;;;;;38.30;24.33;;;;;;;0.98;87.87;98437.02;118759;1151;65128;-79
2021/01/07 07:52:26;;;;;;;39.07;25.73;;;;;;;0.99;87.95;98432.63;118680;1151;65187;-79
2021/01/07 07:55:04;;;;;;;43.43;28.10;;;;;;;0.93;87.65;98433.72;118679;1150;65091;-79
2021/01/07 07:57:44;;;;;;;38.73;26.03;;;;;;;0.91;87.81;98437.30;119284;1151;65140;-79
2021/01/07 08:00:17;;;;;;;;;;;;;;;0.90;87.87;98438.23;118748;1150;65124;-80
2021/01/07 08:02:45;;;;;;;42.00;27.37;;;;;;;0.92;88.27;98442.48;119194;1151;65277;-83
2021/01/07 08:05:26;;;;;;;47.43;30.47;;;;;;;0.98;88.49;98444.89;118589;1151;65184;-89
2021/01/07 08:07:54;;;;;;;36.25;26.15;;;;;;;1.00;87.60;98450.95;119048;1151;65230;-83
2021/01/07 08:10:22;;;;;;;40.35;28.85;;;;;;;1.02;87.72;98454.34;119131;1151;65132;-81
2021/01/07 08:12:51;;;;;;;46.93;32.07;;;;;;;1.04;87.66;98457.78;119179;1151;65107;-82
2021/01/07 08:15:28;;;;;;;44.03;31.00;;;;;;;1.05;87.83;98453.37;119235;1150;65136;-81
2021/01/07 08:17:55;;;;;;;40.47;28.13;;;;;;;1.04;87.90;98462.17;118978;1151;65140;-80
2021/01/07 08:20:25;;;;;;;30.50;21.67;;;;;;;1.09;87.98;98468.11;118429;1151;65158;-79
2021/01/07 08:22:55;;;;;;;29.90;19.15;;;;;;;1.09;87.60;98463.71;118652;1150;65101;-79
2021/01/07 08:25:28;;;;;;;27.77;20.13;;;;;;;1.14;87.75;98465.33;118695;1150;65121;-81
2021/01/07 08:28:09;;;;;;;31.43;22.10;;;;;;;1.20;87.76;98459.84;118979;1150;65273;-81
2021/01/07 08:30:58;;;;;;;32.63;22.90;;;;;;;1.24;87.59;98469.31;119268;1150;65136;-80
2021/01/07 08:33:26;;;;;;;38.07;24.17;;;;;;;1.27;87.61;98467.42;119234;1149;65114;-79
2021/01/07 08:36:00;;;;;;;36.93;24.23;;;;;;;1.30;87.48;98480.42;118906;1151;65108;-82
2021/01/07 08:38:28;;;;;;;35.00;24.07;;;;;;;1.30;86.87;98479.58;119288;1150;65129;-81
2021/01/07 08:41:15;;;;;;;31.17;21.83;;;;;;;1.32;87.07;98480.38;119379;1151;65121;-80
2021/01/07 08:43:42;;;;;;;29.27;20.00;;;;;;;1.35;87.05;98485.51;119073;1150;65216;-80
2021/01/07 08:46:17;;;;;;;30.23;21.90;;;;;;;1.38;87.08;98485.39;119228;1151;65114;-86
2021/01/07 08:48:45;;;;;;;35.43;25.50;;;;;;;1.39;87.27;98489.72;119103;1150;65207;-85
2021/01/07 08:51:16;;;;;;;40.23;27.50;;;;;;;1.42;87.20;98493.99;119236;1150;65146;-86
2021/01/07 08:53:47;;;;;;;34.23;24.53;;;;;;;1.39;86.77;98496.74;119412;1150;65577;-89
2021/01/07 08:56:35;;;;;;;34.37;24.87;;;;;;;1.37;86.73;98493.31;119119;1151;65233;-81
2021/01/07 08:59:27;;;;;;;35.80;26.13;;;;;;;1.38;86.75;98497.66;119334;1150;65127;-80
2021/01/07 09:01:56;;;;;;;34.67;25.13;;;;;;;1.42;87.28;98493.99;118910;1151;65471;-80
2021/01/07 09:04:22;;;;;;;34.20;24.13;;;;;;;1.44;86.79;98503.52;119339;1150;65089;-80
2021/01/07 09:06:57;;;;;;;39.35;27.45;;;;;;;1.52;87.06;98496.20;119270;1150;65121;-80
2021/01/07 09:09:25;;;;;;;43.10;28.30;;;;;;;1.58;86.75;98495.14;119417;1151;65098;-81
2021/01/07 09:12:10;;;;;;;41.57;29.17;;;;;;;1.63;86.99;98503.67;119331;1151;65129;-80
2021/01/07 09:15:21;;;;;;;39.10;28.65;;;;;;;1.71;86.74;98506.00;119259;1150;65147;-80
2021/01/07 09:17:55;;;;;;;34.43;25.67;;;;;;;1.74;86.35;98496.25;119321;1151;65116;-79
2021/01/07 09:20:30;;;;;;;32.93;22.27;;;;;;;1.75;86.60;98502.35;119321;1151;65146;-79
2021/01/07 09:23:07;;;;;;;29.17;21.87;;;;;;;1.74;86.45;98504.13;119313;1151;65206;-80
2021/01/07 09:25:35;;;;;;;30.70;23.77;;;;;;;1.72;86.21;98499.85;119290;1151;65121;-80
2021/01/07 09:28:02;;;;;;;31.05;24.70;;;;;;;1.68;86.52;98500.88;118915;1150;65060;-81
2021/01/07 09:30:29;;;;;;;31.37;23.37;;;;;;;1.63;86.11;98508.92;119303;1151;65120;-81
2021/01/07 09:32:57;;;;;;;33.57;25.20;;;;;;;1.57;86.70;98500.44;119043;1150;65280;-81
2021/01/07 09:35:25;;;;;;;28.93;23.73;;;;;;;1.53;86.19;98503.19;119302;1150;65117;-80
2021/01/07 09:37:52;;;;;;;37.40;25.40;;;;;;;1.54;86.37;98496.16;119026;1150;65577;-80
2021/01/07 09:40:20;;;;;;;31.37;24.67;;;;;;;1.58;86.16;98499.52;119358;1150;65054;-80
2021/01/07 09:42:47;;;;;;;31.50;22.97;;;;;;;1.62;86.10;98501.97;119076;1150;65162;-81
2021/01/07 09:45:14;;;;;;;30.20;23.10;;;;;;;1.57;85.64;98506.55;119082;1150;65263;-80
2021/01/07 09:47:41;;;;;;;32.47;22.07;;;;;;;1.59;86.02;98504.72;118987;1150;65130;-81
2021/01/07 09:50:10;;;;;;;27.10;22.10;;;;;;;1.61;85.65;98507.30;118818;1151;65146;-80
2021/01/07 09:52:37;;;;;;;28.30;20.65;;;;;;;1.61;85.93;98513.41;119380;1151;65063;-79
2021/01/07 09:55:07;;;;;;;31.90;22.70;;;;;;;1.62;85.98;98509.84;118966;1149;65104;-82
2021/01/07 09:57:35;;;;;;;28.40;21.45;;;;;;;1.61;86.17;98509.93;118689;1151;65130;-81
2021/01/07 10:00:07;;;;;;;28.23;20.53;;;;;;;1.56;86.33;98502.22;121991;1151;65114;-80
2021/01/07 10:02:33;;;;;;;35.43;24.03;;;;;;;1.49;86.10;98503.36;121975;1150;62904;-79
2021/01/07 10:05:00;;;;;;;31.70;22.03;;;;;;;1.45;86.09;98507.87;121876;1151;63173;-81
2021/01/07 10:07:27;;;;;;;30.10;23.10;;;;;;;1.42;86.08;98505.38;119554;1150;65200;-80
2021/01/07 10:09:53;;;;;;;32.33;23.57;;;;;;;1.42;86.25;98499.25;119211;1151;65132;-82
2021/01/07 10:12:20;;;;;;;32.60;25.45;;;;;;;1.42;86.41;98500.13;119043;1151;65159;-82
2021/01/07 10:14:47;;;;;;;37.75;26.30;;;;;;;1.43;86.35;98500.97;119286;1150;65110;-82
2021/01/07 10:17:13;;;;;;;50.50;37.37;;;;;;;1.39;86.10;98494.11;119350;1151;65149;-82
2021/01/07 10:19:40;;;;;;;40.90;30.77;;;;;;;1.45;86.29;98507.00;119121;1150;65057;-81
2021/01/07 10:22:13;;;;;;;40.20;28.27;;;;;;;1.47;86.23;98499.92;119181;1151;65290;-83
2021/01/07 10:24:41;;;;;;;38.37;27.20;;;;;;;1.51;86.63;98506.79;119325;1150;65057;-83
2021/01/07 10:27:11;;;;;;;34.37;23.50;;;;;;;1.57;86.28;98506.55;119332;1150;65124;-81
2021/01/07 10:29:38;;;;;;;33.18;22.87;;;;;;;1.60;86.31;98498.54;119350;1151;65069;-78
2021/01/07 10:32:18;;;;;;;32.30;23.13;;;;;;;1.64;86.39;98499.30;119316;1150;65657;-80
2021/01/07 10:34:46;;;;;;;34.38;23.05;;;;;;;1.61;85.98;98509.93;119339;1150;65111;-80
2021/01/07 10:37:16;;;;;;;37.20;26.35;;;;;;;1.56;86.27;98512.72;119323;1150;65057;-80
2021/01/07 10:39:43;;;;;;;;;;;;;;;1.50;86.44;98511.19;119359;1150;65220;-80
2021/01/07 10:42:12;;;;;;;34.43;24.63;;;;;;;1.41;85.92;98508.05;119293;1150;65102;-79
2021/01/07 10:44:43;;;;;;;34.53;24.87;;;;;;;1.31;86.15;98510.15;119240;1151;65101;-80
2021/01/07 10:47:10;;;;;;;;;;;;;;;1.31;86.89;98507.53;118848;1150;65044;-82
2021/01/07 10:49:40;;;;;;;32.93;24.03;;;;;;;1.34;86.33;98511.81;119099;1150;65120;-82
2021/01/07 10:52:12;;;;;;;33.13;23.13;;;;;;;1.27;86.35;98512.05;119339;1150;65130;-82
2021/01/07 10:55:18;;;;;;;33.20;24.10;;;;;;;1.25;86.42;98513.02;119198;1150;65008;-82
2021/01/07 10:57:59;;;;;;;35.37;24.60;;;;;;;1.20;86.10;98522.83;119041;1150;65140;-82
2021/01/07 11:00:48;;;;;;;36.53;26.77;;;;;;;1.13;86.91;98521.33;118740;1150;65287;-80
2021/01/07 11:03:31;;;;;;;39.10;26.83;;;;;;;1.12;86.50;98520.48;119007;1150;65105;-81
2021/01/07 11:06:07;;;;;;;39.10;27.15;;;;;;;1.09;86.59;98513.57;119299;1150;65111;-80
2021/01/07 11:08:39;;;;;;;38.90;26.00;;;;;;;1.09;86.43;98510.09;118958;1151;65152;-81
2021/01/07 11:11:28;;;;;;;45.60;30.10;;;;;;;1.09;86.93;98508.32;119294;1150;65146;-80
2021/01/07 11:14:07;;;;;;;40.60;27.97;;;;;;;1.08;86.82;98504.00;119097;1151;65111;-80
2021/01/07 11:16:46;;;;;;;37.83;28.70;;;;;;;1.11;86.97;98503.03;119213;1150;65137;-80
2021/01/07 11:19:23;;;;;;;39.57;27.17;;;;;;;1.15;86.42;98503.77;119313;1150;65124;-80
2021/01/07 11:22:02;;;;;;;41.40;28.25;;;;;;;1.17;86.33;98505.42;119368;1150;65005;-78